Time;durP1;ratioP1;P1;durP2;ratioP2;P2;SDS_P1;SDS_P2;PMS_P1;PMS_P2;Temp;Humidity;BMP_temperature;BMP_pressure;BME280_temperature;BME280_humidity;BME280_pressure;Samples;Min_cycle;Max_cycle;Signal;HPM_P1;HPM_P2
2021/05/29 00:02:18;;;;;;;12.90;3.72;;;;;;;19.55;64.43;99409.01;1787712;80;21261;-82
2021/05/29 00:05:23;;;;;;;12.82;3.20;;;;;;;19.56;64.58;99407.91;1787576;80;21292;-82
2021/05/29 00:08:27;;;;;;;8.85;3.00;;;;;;;19.55;64.86;99409.01;1772466;80;21218;-82
2021/05/29 00:11:32;;;;;;;8.03;3.05;;;;;;;19.51;64.83;99407.28;1786082;80;21154;-82
2021/05/29 00:14:37;;;;;;;11.33;3.02;;;;;;;19.48;64.92;99406.44;1787780;80;21831;-82
2021/05/29 00:17:44;;;;;;;6.90;3.25;;;;;;;19.46;65.02;99409.99;1786088;80;21173;-82
2021/05/29 00:20:50;;;;;;;11.65;3.10;;;;;;;19.44;65.09;99398.33;1787402;80;21205;-82
2021/05/29 00:23:56;;;;;;;14.07;3.42;;;;;;;19.40;65.31;99398.00;1787694;80;21190;-82
2021/05/29 00:27:02;;;;;;;9.58;3.47;;;;;;;19.40;65.53;99393.84;1787726;80;21268;-82
2021/05/29 00:30:10;;;;;;;8.60;3.42;;;;;;;19.38;65.79;99385.47;1772380;80;21811;-82
2021/05/29 00:33:16;;;;;;;12.15;3.40;;;;;;;19.35;66.28;99376.30;1787748;80;21295;-82
2021/05/29 00:36:21;;;;;;;8.60;3.25;;;;;;;19.34;66.79;99374.08;1787639;80;21190;-82
2021/05/29 00:39:27;;;;;;;6.92;3.70;;;;;;;19.37;67.19;99372.70;1787774;80;21300;-82
2021/05/29 00:42:31;;;;;;;9.50;3.52;;;;;;;19.37;67.42;99374.09;1787681;80;21308;-82
2021/05/29 00:45:36;;;;;;;10.40;3.33;;;;;;;19.37;67.59;99369.94;1787709;80;21304;-82
2021/05/29 00:48:43;;;;;;;9.30;3.80;;;;;;;19.35;67.84;99366.05;1786978;80;21319;-82
2021/05/29 00:51:49;;;;;;;10.72;4.40;;;;;;;19.36;67.86;99371.04;1793731;80;21707;-82
2021/05/29 00:54:56;;;;;;;9.70;3.80;;;;;;;19.33;68.19;99364.05;1798842;80;21264;-82
2021/05/29 00:58:02;;;;;;;10.63;3.80;;;;;;;19.30;68.65;99364.59;1797466;79;21735;-82
2021/05/29 01:01:07;;;;;;;11.22;3.20;;;;;;;19.28;68.73;99370.09;1799214;80;21291;-82
2021/05/29 01:04:12;;;;;;;5.53;2.90;;;;;;;19.27;68.72;99371.19;1799145;80;21302;-82
2021/05/29 01:07:19;;;;;;;12.05;3.17;;;;;;;19.24;69.13;99368.91;1799231;80;21276;-82
2021/05/29 01:10:24;;;;;;;10.28;3.52;;;;;;;19.21;69.38;99365.29;1799242;80;21259;-82
2021/05/29 01:13:32;;;;;;;12.05;3.45;;;;;;;19.21;69.22;99368.06;1799180;80;21201;-82
2021/05/29 01:16:44;;;;;;;18.07;3.90;;;;;;;19.22;68.88;99366.41;1798971;80;21331;-82
2021/05/29 01:19:49;;;;;;;10.53;4.45;;;;;;;19.26;69.14;99366.75;1799258;80;21287;-82
2021/05/29 01:22:59;;;;;;;9.80;4.35;;;;;;;19.25;69.89;99364.52;1799121;80;21862;-82
2021/05/29 01:26:05;;;;;;;17.87;4.10;;;;;;;19.22;70.44;99358.64;1799185;80;21268;-82
2021/05/29 01:29:10;;;;;;;9.88;3.17;;;;;;;19.18;70.58;99363.02;1798137;80;21181;-82
2021/05/29 01:32:20;;;;;;;13.03;3.77;;;;;;;19.15;71.05;99371.31;1799293;80;21193;-82
2021/05/29 01:35:24;;;;;;;13.22;3.92;;;;;;;19.05;70.88;99365.59;1798852;80;21803;-82
2021/05/29 01:38:29;;;;;;;8.05;3.15;;;;;;;18.99;69.90;99363.85;1776295;80;21291;-82
2021/05/29 01:41:34;;;;;;;13.53;4.87;;;;;;;18.98;69.51;99370.50;1799277;80;21197;-82
2021/05/29 01:44:40;;;;;;;15.88;4.15;;;;;;;18.96;69.32;99366.60;1798966;80;21384;-82
2021/05/29 01:47:48;;;;;;;22.22;5.58;;;;;;;18.96;69.54;99361.58;1799138;80;21738;-82
2021/05/29 01:50:54;;;;;;;22.30;6.47;;;;;;;18.96;69.63;99357.42;1799204;80;21276;-82
2021/05/29 01:54:01;;;;;;;20.12;5.70;;;;;;;18.95;69.69;99365.45;1740986;82;21778;-82
2021/05/29 01:57:06;;;;;;;28.15;6.55;;;;;;;18.90;69.75;99354.58;1740848;82;21315;-81
2021/05/29 02:00:12;;;;;;;16.70;7.10;;;;;;;18.86;69.83;99347.86;1740898;82;21276;-82
2021/05/29 02:03:18;;;;;;;16.82;6.22;;;;;;;18.85;69.89;99341.20;1740829;82;21193;-81
2021/05/29 02:06:24;;;;;;;15.72;6.10;;;;;;;18.85;69.73;99348.13;1713335;82;21318;-82
2021/05/29 02:09:29;;;;;;;20.32;6.22;;;;;;;18.86;69.75;99353.95;1741042;82;21199;-82
2021/05/29 02:12:36;;;;;;;18.40;7.10;;;;;;;18.83;69.92;99351.70;1740832;82;21869;-82
2021/05/29 02:15:45;;;;;;;20.17;6.28;;;;;;;18.80;70.19;99353.59;1740913;82;21201;-82
2021/05/29 02:18:51;;;;;;;15.18;6.00;;;;;;;18.77;70.42;99355.47;1740919;82;21320;-82
2021/05/29 02:21:57;;;;;;;19.02;6.28;;;;;;;18.74;70.78;99355.45;1740862;82;21324;-82
2021/05/29 02:25:03;;;;;;;15.65;7.00;;;;;;;18.71;71.42;99355.11;1741077;82;21632;-82
2021/05/29 02:28:08;;;;;;;21.90;8.98;;;;;;;18.69;72.10;99356.75;1741039;82;21327;-82
2021/05/29 02:31:14;;;;;;;21.45;10.45;;;;;;;18.67;73.22;99349.73;1741032;82;21141;-82
2021/05/29 02:34:19;;;;;;;28.38;11.53;;;;;;;18.68;74.04;99352.80;1740842;82;21786;-82
2021/05/29 02:37:25;;;;;;;22.65;10.93;;;;;;;18.68;74.63;99361.97;1741038;82;21169;-82
2021/05/29 02:40:29;;;;;;;28.77;12.50;;;;;;;18.69;75.34;99359.52;1739691;82;21303;-82
2021/05/29 02:43:34;;;;;;;27.93;12.37;;;;;;;18.69;75.97;99352.59;1741043;82;21307;-82
2021/05/29 02:46:38;;;;;;;29.27;12.37;;;;;;;18.72;76.54;99354.00;1741044;82;21295;-82
2021/05/29 02:49:44;;;;;;;30.10;13.93;;;;;;;18.76;77.02;99366.27;1740901;82;21303;-82
2021/05/29 02:52:50;;;;;;;25.43;14.10;;;;;;;18.78;77.33;99359.95;1750870;79;21346;-82
2021/05/29 02:55:55;;;;;;;33.02;13.90;;;;;;;18.83;77.44;99360.86;1799275;80;21267;-82
2021/05/29 02:59:01;;;;;;;36.20;14.53;;;;;;;18.90;77.35;99364.83;1799086;80;21181;-82
2021/05/29 03:02:06;;;;;;;36.48;14.35;;;;;;;18.97;77.18;99359.13;1799185;80;21813;-82
2021/05/29 03:05:13;;;;;;;37.83;13.70;;;;;;;19.09;76.88;99362.06;1799312;80;21272;-82
2021/05/29 03:08:22;;;;;;;35.83;14.18;;;;;;;19.35;76.40;99359.66;1799213;80;21173;-82
2021/05/29 03:11:29;;;;;;;31.25;13.00;;;;;;;19.69;75.25;99352.63;1799378;80;21794;-82
2021/05/29 03:14:34;;;;;;;29.50;13.18;;;;;;;19.92;73.74;99355.13;1799109;80;21755;-82
2021/05/29 03:17:40;;;;;;;26.02;12.55;;;;;;;20.13;73.09;99362.55;1799285;80;21236;-82
2021/05/29 03:20:46;;;;;;;34.38;11.70;;;;;;;20.45;71.95;99362.30;1799338;80;21185;-82
2021/05/29 03:23:52;;;;;;;25.57;11.40;;;;;;;20.61;70.46;99365.00;1798982;80;21146;-82
2021/05/29 03:26:57;;;;;;;21.10;9.80;;;;;;;20.52;70.03;99361.03;1799142;80;21264;-82
2021/05/29 03:30:03;;;;;;;19.75;10.90;;;;;;;20.37;70.30;99365.00;1799233;80;21263;-82
2021/05/29 03:33:08;;;;;;;23.15;10.78;;;;;;;20.32;70.49;99356.07;1799165;80;21750;-82
2021/05/29 03:36:13;;;;;;;22.80;10.10;;;;;;;20.50;70.27;99362.38;1799208;80;21268;-82
2021/05/29 03:39:18;;;;;;;29.12;9.73;;;;;;;20.78;69.56;99352.89;1797540;80;21189;-82
2021/05/29 03:42:23;;;;;;;18.23;10.80;;;;;;;21.04;68.47;99371.44;1799183;80;21316;-82
2021/05/29 03:45:30;;;;;;;27.25;9.70;;;;;;;21.27;67.59;99366.58;1799258;80;21264;-82
2021/05/29 03:48:35;;;;;;;18.95;9.28;;;;;;;21.45;66.72;99370.30;1799214;80;21489;-82
2021/05/29 03:51:40;;;;;;;29.72;11.95;;;;;;;21.56;66.19;99369.26;1799019;80;21273;-82
2021/05/29 03:54:46;;;;;;;31.25;11.30;;;;;;;21.71;65.62;99369.88;1791515;80;21307;-82
2021/05/29 03:57:52;;;;;;;23.40;10.20;;;;;;;21.62;65.06;99365.94;1787732;80;21880;-82
2021/05/29 04:00:56;;;;;;;22.62;10.48;;;;;;;21.54;65.49;99367.28;1787728;80;21834;-82
2021/05/29 04:04:01;;;;;;;23.55;9.55;;;;;;;21.44;65.47;99370.02;1787759;80;21308;-82
2021/05/29 04:07:05;;;;;;;22.45;9.60;;;;;;;21.28;65.74;99368.25;1787886;80;21304;-82
2021/05/29 04:10:15;;;;;;;29.23;10.10;;;;;;;21.09;66.06;99363.68;1787881;80;21753;-82
2021/05/29 04:13:20;;;;;;;23.90;12.18;;;;;;;20.92;66.50;99363.83;1787696;80;21343;-82
2021/05/29 04:16:26;;;;;;;26.12;12.00;;;;;;;20.83;66.73;99358.48;1787882;80;21257;-82
2021/05/29 04:19:32;;;;;;;27.25;11.57;;;;;;;20.73;66.98;99364.80;1787696;80;21894;-82
2021/05/29 04:22:37;;;;;;;18.75;10.65;;;;;;;20.57;67.36;99367.18;1768988;80;21268;-82
2021/05/29 04:25:42;;;;;;;27.55;10.20;;;;;;;20.44;68.01;99369.80;1787858;80;21146;-82
2021/05/29 04:28:48;;;;;;;22.50;10.90;;;;;;;20.42;68.39;99374.24;1787763;80;21296;-82
2021/05/29 04:31:52;;;;;;;32.13;10.95;;;;;;;20.47;68.58;99370.70;1771364;80;21802;-82
2021/05/29 04:35:00;;;;;;;25.05;9.45;;;;;;;20.63;68.75;99367.50;1787726;80;21278;-82
2021/05/29 04:38:05;;;;;;;22.50;9.38;;;;;;;20.84;68.54;99371.27;1787677;80;21300;-82
2021/05/29 04:41:10;;;;;;;20.95;8.88;;;;;;;21.00;67.92;99366.13;1787722;80;21296;-82
2021/05/29 04:44:20;;;;;;;22.87;9.53;;;;;;;21.25;67.38;99362.66;1787920;80;21166;-82
2021/05/29 04:47:23;;;;;;;19.62;8.80;;;;;;;21.49;66.60;99367.27;1785675;80;21261;-82
2021/05/29 04:50:29;;;;;;;24.95;8.05;;;;;;;21.72;65.32;99364.59;1787044;80;21257;-82
2021/05/29 04:53:34;;;;;;;18.85;7.95;;;;;;;21.99;64.46;99363.02;1787061;80;21269;-82
2021/05/29 04:56:41;;;;;;;23.73;7.72;;;;;;;22.28;63.24;99368.95;1790101;80;22023;-82
2021/05/29 04:59:46;;;;;;;18.27;7.25;;;;;;;22.44;61.75;99368.41;1792637;80;21292;-82
2021/05/29 05:02:52;;;;;;;17.05;7.12;;;;;;;22.42;61.56;99372.04;1792583;80;21201;-82
2021/05/29 05:05:56;;;;;;;20.68;7.40;;;;;;;22.35;62.16;99363.13;1793192;80;21308;-82
2021/05/29 05:09:02;;;;;;;21.42;6.60;;;;;;;22.24;62.31;99354.46;1791836;80;21304;-82
2021/05/29 05:12:07;;;;;;;12.63;6.00;;;;;;;22.15;62.03;99363.91;1791719;80;21145;-82
2021/05/29 05:15:14;;;;;;;16.02;6.05;;;;;;;22.01;62.22;99359.95;1792952;80;21158;-81
2021/05/29 05:18:21;;;;;;;16.20;6.80;;;;;;;21.82;63.15;99363.78;1792564;80;21342;-82
2021/05/29 05:21:27;;;;;;;18.40;6.90;;;;;;;21.64;64.13;99359.01;1791761;80;21220;-82
2021/05/29 05:24:32;;;;;;;19.27;7.22;;;;;;;21.56;64.74;99356.73;1792160;80;21320;-82
2021/05/29 05:27:41;;;;;;;17.02;6.42;;;;;;;21.65;65.07;99354.28;1793061;80;21662;-82
2021/05/29 05:30:48;;;;;;;15.13;6.25;;;;;;;21.87;64.95;99354.05;1793409;80;21138;-82
2021/05/29 05:33:54;;;;;;;19.85;6.35;;;;;;;22.10;64.04;99346.59;1793227;80;21221;-82
2021/05/29 05:36:59;;;;;;;16.60;5.72;;;;;;;22.30;63.63;99341.67;1793263;80;21151;-82
2021/05/29 05:40:05;;;;;;;16.12;5.62;;;;;;;22.43;62.59;99343.05;1793150;80;21225;-82
2021/05/29 05:43:10;;;;;;;10.32;5.33;;;;;;;22.68;62.26;99338.90;1791947;80;21169;-82
2021/05/29 05:46:16;;;;;;;10.35;4.72;;;;;;;23.00;62.19;99341.94;1793222;80;21256;-82
2021/05/29 05:49:21;;;;;;;25.00;4.72;;;;;;;23.34;61.13;99332.96;1793256;80;21297;-82
2021/05/29 05:52:26;;;;;;;15.32;4.33;;;;;;;23.65;58.57;99337.31;1793277;80;21154;-82
2021/05/29 05:55:33;;;;;;;12.43;4.78;;;;;;;23.73;58.10;99333.67;1793323;80;21309;-82
2021/05/29 05:58:43;;;;;;;13.90;4.37;;;;;;;23.67;57.66;99324.48;1796116;80;21292;-82
2021/05/29 06:01:48;;;;;;;;;;;;;;;23.62;57.46;99325.31;1798873;80;21287;-82
2021/05/29 06:04:55;;;;;;;25.95;4.70;;;;;;;23.66;58.21;99326.41;1796250;80;20177;-82
2021/05/29 06:08:01;;;;;;;9.43;3.87;;;;;;;23.85;58.33;99335.54;1796043;80;21890;-82
2021/05/29 06:11:06;;;;;;;9.20;3.92;;;;;;;24.09;56.86;99332.35;1796045;80;21347;-82
2021/05/29 06:20:49;;;;;;;11.22;3.60;;;;;;;24.38;54.23;99342.23;1796332;80;21798;-82
2021/05/29 06:23:49;;;;;;;10.82;3.92;;;;;;;24.32;54.80;99336.93;1796212;80;21303;-82
2021/05/29 06:26:57;;;;;;;9.48;3.60;;;;;;;24.31;54.97;99335.27;1796201;80;21811;-82
2021/05/29 06:30:02;;;;;;;14.35;3.58;;;;;;;24.35;54.83;99333.00;1796216;80;21269;-82
2021/05/29 06:33:07;;;;;;;16.95;3.52;;;;;;;24.56;53.42;99332.86;1795911;80;21310;-82
2021/05/29 06:36:11;;;;;;;6.40;3.02;;;;;;;24.63;49.82;99331.41;1796310;80;21846;-82
2021/05/29 06:39:17;;;;;;;10.75;3.90;;;;;;;24.63;50.65;99326.39;1796084;80;21220;-82
2021/05/29 06:42:22;;;;;;;7.60;2.90;;;;;;;24.71;49.86;99330.79;1796186;80;21317;-82
2021/05/29 06:45:30;;;;;;;10.75;3.12;;;;;;;24.82;49.56;99327.89;1796348;80;21154;-82
2021/05/29 06:48:35;;;;;;;12.50;2.95;;;;;;;25.04;50.90;99324.05;1796193;80;21311;-82
2021/05/29 07:01:38;;;;;;;13.40;3.12;;;;;;;25.26;47.12;99324.11;1722096;83;21764;-82
2021/05/29 07:04:44;;;;;;;11.38;3.05;;;;;;;25.24;47.42;99321.62;1738563;82;21303;-82
2021/05/29 07:07:49;;;;;;;8.13;2.85;;;;;;;25.34;48.10;99324.86;1731604;83;21941;-82
2021/05/29 07:10:55;;;;;;;10.60;3.25;;;;;;;25.40;48.84;99324.49;1731543;83;21823;-82
2021/05/29 07:14:02;;;;;;;10.58;3.17;;;;;;;25.47;48.51;99310.16;1728909;83;21348;-82
2021/05/29 07:17:11;;;;;;;12.30;3.87;;;;;;;25.65;49.04;99307.97;1738749;82;21263;-82
2021/05/29 07:20:17;;;;;;;9.10;3.35;;;;;;;25.85;48.59;99304.08;1722073;83;21951;-82
2021/05/29 07:23:16;;;;;;;10.80;4.15;;;;;;;26.04;48.36;99301.28;1738382;82;21314;-83
2021/05/29 07:26:21;;;;;;;14.18;3.20;;;;;;;26.16;46.50;99303.61;1731526;83;21312;-82
2021/05/29 07:29:27;;;;;;;12.28;3.40;;;;;;;26.10;47.17;99294.46;1730283;83;21309;-82
2021/05/29 07:32:34;;;;;;;17.02;3.95;;;;;;;26.00;47.30;99300.22;1738605;82;21790;-82
2021/05/29 07:35:41;;;;;;;10.43;3.30;;;;;;;25.86;47.32;99293.13;1731554;83;21826;-82
2021/05/29 07:38:46;;;;;;;12.40;2.92;;;;;;;25.85;47.73;99292.05;1731622;83;21344;-82
2021/05/29 07:41:50;;;;;;;10.13;3.62;;;;;;;25.82;46.97;99291.23;1730245;83;22204;-82
2021/05/29 07:44:56;;;;;;;11.60;2.65;;;;;;;25.81;47.99;99283.41;1738693;82;21303;-83
2021/05/29 07:48:00;;;;;;;12.82;2.40;;;;;;;25.84;46.29;99287.59;1731635;83;21360;-82
2021/05/29 07:51:06;;;;;;;10.45;2.60;;;;;;;25.78;45.10;99286.80;1731645;83;21210;-82
2021/05/29 07:54:13;;;;;;;9.30;2.52;;;;;;;25.69;44.24;99286.63;1731623;83;21348;-82
2021/05/29 07:57:18;;;;;;;14.03;3.17;;;;;;;25.67;44.99;99281.88;1709504;83;21816;-82
2021/05/29 08:00:26;;;;;;;11.85;2.92;;;;;;;25.61;45.80;99277.50;1731510;83;21280;-82
2021/05/29 08:03:32;;;;;;;21.75;3.25;;;;;;;25.59;46.34;99278.34;1731579;83;21340;-82
2021/05/29 08:06:38;;;;;;;15.05;3.02;;;;;;;25.64;46.05;99284.45;1731552;83;21799;-82
2021/05/29 08:09:44;;;;;;;12.73;3.10;;;;;;;25.73;47.24;99277.87;1731568;83;21308;-82
2021/05/29 08:12:49;;;;;;;13.00;3.00;;;;;;;25.79;46.21;99273.09;1730109;83;21182;-82
2021/05/29 08:15:54;;;;;;;8.35;2.52;;;;;;;25.73;44.86;99275.06;1738642;82;21315;-82
2021/05/29 08:19:00;;;;;;;9.63;2.98;;;;;;;25.70;44.99;99274.86;1722049;83;21352;-82
2021/05/29 08:22:07;;;;;;;9.98;2.75;;;;;;;25.80;45.05;99273.91;1738722;82;21841;-82
2021/05/29 08:25:13;;;;;;;10.80;2.72;;;;;;;26.02;44.85;99267.69;1731675;83;21850;-83
2021/05/29 08:28:18;;;;;;;13.32;2.75;;;;;;;26.26;44.21;99262.84;1730117;83;21189;-83
2021/05/29 08:31:25;;;;;;;7.10;2.83;;;;;;;26.50;43.81;99261.35;1738685;82;21271;-82
2021/05/29 08:34:30;;;;;;;7.78;2.65;;;;;;;26.64;43.92;99260.81;1731494;83;21343;-83
2021/05/29 08:37:35;;;;;;;7.65;2.37;;;;;;;26.79;43.31;99263.91;1730235;83;21277;-82
2021/05/29 08:40:41;;;;;;;6.72;2.42;;;;;;;26.94;43.10;99258.58;1738737;82;21157;-82
2021/05/29 08:43:48;;;;;;;12.70;2.92;;;;;;;27.01;43.47;99253.41;1731569;83;21324;-83
2021/05/29 08:46:53;;;;;;;10.30;2.25;;;;;;;27.17;43.40;99256.19;1730183;83;21166;-83
2021/05/29 08:49:59;;;;;;;11.43;2.02;;;;;;;27.33;41.96;99259.50;1719512;82;21683;-82
2021/05/29 08:53:04;;;;;;;5.80;1.82;;;;;;;27.41;41.09;99252.33;1731548;83;21307;-83
2021/05/29 08:56:10;;;;;;;6.03;2.10;;;;;;;27.53;40.60;99248.42;1731587;83;21280;-83
2021/05/29 08:59:16;;;;;;;5.92;1.82;;;;;;;27.60;41.17;99256.41;1732521;82;21174;-82
2021/05/29 09:02:21;;;;;;;5.97;2.17;;;;;;;27.71;40.72;99248.90;1742953;82;21205;-83
2021/05/29 09:05:26;;;;;;;8.58;2.00;;;;;;;27.76;40.94;99254.40;1742983;82;21327;-82
2021/05/29 09:08:32;;;;;;;12.25;2.42;;;;;;;27.68;40.75;99244.45;1743076;82;21360;-82
2021/05/29 09:11:50;;;;;;;6.25;1.92;;;;;;;27.65;41.06;99244.48;1742855;82;21276;-82
2021/05/29 09:14:55;;;;;;;9.65;1.92;;;;;;;27.83;40.41;99234.86;1724476;82;21726;-82
2021/05/29 09:18:01;;;;;;;6.03;1.70;;;;;;;28.06;39.98;99243.58;1742836;82;21220;-82
2021/05/29 09:21:39;;;;;;;7.20;1.75;;;;;;;28.20;39.94;99244.36;1722475;82;21193;-82
2021/05/29 09:24:44;;;;;;;7.95;1.87;;;;;;;28.35;37.31;99235.31;1741063;82;21829;-82
2021/05/29 09:28:07;;;;;;;8.75;2.15;;;;;;;28.35;37.31;99235.31;1742673;82;21217;-82
2021/05/29 09:31:16;;;;;;;6.50;1.67;;;;;;;28.41;37.35;99238.24;1743188;82;21833;-82
2021/05/29 09:34:20;;;;;;;5.15;1.45;;;;;;;28.48;38.29;99227.39;1724328;82;21221;-82
2021/05/29 09:37:29;;;;;;;4.65;1.65;;;;;;;28.64;37.31;99227.22;1723820;82;21169;-82
2021/05/29 09:40:34;;;;;;;8.05;1.55;;;;;;;28.57;36.56;99229.68;1702085;82;21280;-82
2021/05/29 09:44:04;;;;;;;15.70;2.50;;;;;;;28.46;36.09;99224.05;1723776;82;21271;-82
2021/05/29 09:47:13;;;;;;;4.67;1.60;;;;;;;28.19;36.91;99221.63;1724180;82;21277;-82
2021/05/29 09:50:20;;;;;;;6.60;1.70;;;;;;;28.19;36.91;99221.63;1743143;82;21284;-82
2021/05/29 09:53:32;;;;;;;6.05;1.70;;;;;;;28.13;37.02;99213.61;1722296;82;21663;-82
2021/05/29 09:56:44;;;;;;;7.25;1.60;;;;;;;28.13;36.41;99213.03;1719401;82;21280;-82
2021/05/29 10:00:08;;;;;;;8.53;1.85;;;;;;;28.25;37.89;99211.90;1742905;82;21335;-82
2021/05/29 10:03:13;;;;;;;5.80;2.50;;;;;;;28.35;37.21;99204.39;1710362;83;21319;-82
2021/05/29 10:06:17;;;;;;;12.05;2.30;;;;;;;28.37;37.21;99207.69;1712296;83;21890;-82
2021/05/29 10:09:25;;;;;;;15.35;1.90;;;;;;;28.30;37.07;99201.09;1734193;83;21249;-82
2021/05/29 10:12:31;;;;;;;6.47;2.00;;;;;;;28.34;37.39;99195.67;1734390;83;21280;-82
2021/05/29 10:15:38;;;;;;;9.25;1.98;;;;;;;28.32;36.62;99201.59;1712148;83;21780;-82
2021/05/29 10:18:45;;;;;;;4.00;1.35;;;;;;;28.23;36.28;99188.91;1733091;82;21213;-82
2021/05/29 10:21:50;;;;;;;7.30;1.82;;;;;;;28.32;36.82;99186.70;1734588;83;21865;-82
2021/05/29 10:24:55;;;;;;;10.18;2.05;;;;;;;28.44;37.33;99179.96;1734476;83;21289;-82
2021/05/29 10:28:01;;;;;;;6.45;1.90;;;;;;;28.61;36.42;99177.25;1734511;83;21775;-82
2021/05/29 10:31:06;;;;;;;5.28;1.75;;;;;;;28.74;35.76;99180.52;1734491;83;21284;-82
2021/05/29 10:34:12;;;;;;;5.05;2.00;;;;;;;28.90;35.03;99175.89;1712266;83;21858;-82
2021/05/29 10:37:22;;;;;;;11.43;2.35;;;;;;;28.81;34.74;99172.21;1734548;83;21189;-82
2021/05/29 10:40:34;;;;;;;;;;;;;;;28.73;34.58;99166.20;1715841;83;21205;-82
2021/05/29 10:43:38;;;;;;;8.35;1.90;;;;;;;28.68;34.11;99162.13;1733596;83;20277;-82
2021/05/29 10:46:43;;;;;;;6.95;2.10;;;;;;;28.60;34.57;99156.45;1734428;83;21190;-82
2021/05/29 10:50:00;;;;;;;10.70;2.77;;;;;;;28.52;33.94;99151.89;1734482;83;21280;-82
2021/05/29 10:53:05;;;;;;;7.22;2.35;;;;;;;28.45;34.16;99149.27;1734373;83;21878;-82
2021/05/29 10:56:31;;;;;;;7.35;1.95;;;;;;;28.47;34.33;99144.17;1734490;83;21289;-82
2021/05/29 10:59:43;;;;;;;8.45;1.92;;;;;;;28.52;34.30;99137.83;1734424;83;21708;-82
2021/05/29 11:02:47;;;;;;;9.25;1.82;;;;;;;28.51;34.32;99139.54;1740100;82;21205;-82
2021/05/29 11:05:56;;;;;;;5.28;1.70;;;;;;;28.47;34.17;99135.73;1743125;82;21307;-82
2021/05/29 11:09:02;;;;;;;7.58;2.22;;;;;;;28.58;34.78;99135.70;1743227;82;21837;-82
2021/05/29 11:12:08;;;;;;;6.37;2.00;;;;;;;28.69;35.14;99135.66;1723982;82;21177;-82
2021/05/29 11:15:14;;;;;;;6.00;1.87;;;;;;;28.74;34.43;99134.09;1722746;82;21335;-83
2021/05/29 11:18:20;;;;;;;8.48;2.20;;;;;;;28.77;34.49;99130.64;1713102;82;21771;-82
2021/05/29 11:21:25;;;;;;;15.18;1.92;;;;;;;28.65;34.73;99128.19;1714182;84;21362;-83
2021/05/29 11:24:30;;;;;;;12.20;1.82;;;;;;;28.64;34.66;99127.36;1711926;84;21867;-82
2021/05/29 11:27:41;;;;;;;9.65;2.92;;;;;;;28.68;33.46;99126.97;1712000;84;21321;-82
2021/05/29 11:30:47;;;;;;;11.20;2.87;;;;;;;28.65;34.04;99129.02;1713388;84;21345;-82
2021/05/29 11:34:02;;;;;;;7.58;3.05;;;;;;;28.82;34.08;99130.25;1713180;84;21862;-82
2021/05/29 11:37:11;;;;;;;9.50;3.40;;;;;;;28.99;33.43;99121.90;1713245;84;21190;-82
2021/05/29 11:40:16;;;;;;;11.53;2.62;;;;;;;29.02;33.12;99110.80;1678033;84;21329;-82
2021/05/29 11:43:23;;;;;;;13.43;4.10;;;;;;;29.09;32.40;99103.29;1713356;84;21344;-82
2021/05/29 11:46:31;;;;;;;13.83;3.42;;;;;;;29.12;32.06;99104.02;1712783;84;21314;-82
2021/05/29 11:49:42;;;;;;;10.78;3.40;;;;;;;29.22;32.89;99096.70;1713690;84;21768;-82
2021/05/29 11:52:50;;;;;;;7.25;2.58;;;;;;;29.34;32.96;99093.80;1713508;84;21214;-82
2021/05/29 11:56:04;;;;;;;7.37;2.20;;;;;;;29.43;32.52;99101.09;1713460;84;21294;-82
2021/05/29 11:59:09;;;;;;;11.35;2.45;;;;;;;29.44;32.51;99097.11;1713561;84;21891;-82
2021/05/29 12:02:14;;;;;;;7.95;2.12;;;;;;;29.39;32.99;99095.86;1711056;83;21886;-82
2021/05/29 12:05:19;;;;;;;7.40;2.33;;;;;;;29.35;33.40;99095.45;1689243;85;21301;-82
2021/05/29 12:08:27;;;;;;;10.98;2.70;;;;;;;29.18;33.67;99099.09;1688651;85;21835;-82
2021/05/29 12:11:39;;;;;;;9.10;2.67;;;;;;;28.95;33.58;99093.58;1689148;85;21211;-82
2021/05/29 12:14:49;;;;;;;10.05;2.55;;;;;;;28.83;33.88;99103.77;1689114;85;21308;-82
2021/05/29 12:17:54;;;;;;;14.98;4.10;;;;;;;28.78;38.29;99121.62;1689016;85;21756;-82
2021/05/29 12:21:06;;;;;;;17.48;3.80;;;;;;;28.15;40.86;99115.76;1689167;85;21218;-82
2021/05/29 12:24:11;;;;;;;9.93;3.60;;;;;;;27.12;42.08;99120.75;1689168;85;21329;-82
2021/05/29 12:27:31;;;;;;;14.53;2.58;;;;;;;26.23;44.23;99122.74;1689103;85;21337;-82
2021/05/29 12:30:37;;;;;;;9.70;2.80;;;;;;;25.59;45.82;99116.53;1668355;85;21210;-82
2021/05/29 12:33:44;;;;;;;7.60;2.67;;;;;;;25.09;47.06;99133.78;1689176;85;21328;-82
2021/05/29 12:37:16;;;;;;;9.23;3.20;;;;;;;24.71;50.71;99146.25;1689051;85;21401;-82
2021/05/29 12:40:24;;;;;;;21.50;4.65;;;;;;;24.17;53.75;99136.17;1686875;85;21254;-82
2021/05/29 12:43:29;;;;;;;9.38;3.67;;;;;;;23.32;54.33;99147.70;1688066;85;21332;-81
2021/05/29 12:46:52;;;;;;;13.03;3.83;;;;;;;22.78;56.33;99142.93;1687938;85;21360;-81
2021/05/29 12:49:47;;;;;;;6.50;3.37;;;;;;;22.40;56.58;99168.13;1688111;85;21206;-82
2021/05/29 12:52:52;;;;;;;7.83;2.83;;;;;;;22.18;57.21;99145.59;1687828;85;21320;-82
2021/05/29 12:56:18;;;;;;;9.80;3.12;;;;;;;22.04;56.68;99154.20;1687761;85;21336;-81
2021/05/29 12:59:25;;;;;;;12.70;3.35;;;;;;;21.97;57.47;99158.38;1688257;85;21316;-81
2021/05/29 13:07:24;;;;;;;6.60;2.52;;;;;;;21.95;59.27;99157.27;1688373;85;21408;-82
2021/05/29 13:09:25;;;;;;;9.40;3.12;;;;;;;21.96;58.81;99145.01;1674065;85;21348;-82
2021/05/29 13:12:31;;;;;;;7.87;2.77;;;;;;;21.96;59.21;99161.71;1675381;85;21298;-82
2021/05/29 13:15:39;;;;;;;10.75;2.90;;;;;;;21.93;60.04;99163.69;1675453;85;21305;-82
2021/05/29 13:18:45;;;;;;;11.75;3.72;;;;;;;21.89;61.51;99170.91;1674721;85;21333;-82
2021/05/29 13:22:02;;;;;;;8.73;2.65;;;;;;;21.84;61.16;99170.36;1675721;85;21306;-82
2021/05/29 13:25:12;;;;;;;6.87;2.95;;;;;;;21.79;62.51;99182.05;1675627;85;21298;-82
2021/05/29 13:28:24;;;;;;;7.10;2.50;;;;;;;21.65;63.49;99183.98;1675572;85;21215;-81
2021/05/29 13:31:29;;;;;;;4.72;2.02;;;;;;;21.54;64.70;99193.40;1675660;85;21303;-81
2021/05/29 13:34:37;;;;;;;4.50;2.62;;;;;;;21.39;65.36;99196.16;1675650;85;21203;-81
2021/05/29 13:37:42;;;;;;;6.67;2.75;;;;;;;21.21;66.13;99195.23;1675657;85;21226;-80
2021/05/29 13:40:47;;;;;;;9.73;3.05;;;;;;;21.07;68.21;99191.56;1675633;85;21290;-81
2021/05/29 13:43:52;;;;;;;14.90;3.60;;;;;;;20.91;69.81;99203.73;1675646;85;21378;-81
2021/05/29 13:46:59;;;;;;;8.58;2.92;;;;;;;20.70;71.50;99211.12;1675632;85;21592;-81
2021/05/29 13:50:06;;;;;;;8.23;3.12;;;;;;;20.44;72.90;99208.72;1674349;85;21386;-81
2021/05/29 13:53:11;;;;;;;10.63;2.45;;;;;;;20.21;73.70;99211.88;1675616;85;21325;-81
2021/05/29 13:56:16;;;;;;;7.25;2.37;;;;;;;20.05;74.56;99235.36;1675671;85;21298;-81
2021/05/29 13:59:21;;;;;;;5.45;2.33;;;;;;;19.93;74.61;99233.85;1675647;85;21227;-81
2021/05/29 14:02:27;;;;;;;14.07;2.42;;;;;;;19.79;74.09;99241.21;1675460;85;21218;-81
2021/05/29 14:05:33;;;;;;;12.07;2.52;;;;;;;19.73;74.30;99241.44;1689449;83;21325;-81
2021/05/29 14:08:38;;;;;;;5.47;1.80;;;;;;;19.63;74.20;99240.78;1699983;84;21362;-81
2021/05/29 14:11:50;;;;;;;5.97;2.37;;;;;;;19.52;74.50;99231.46;1700056;84;21211;-81
2021/05/29 14:14:56;;;;;;;10.08;2.90;;;;;;;19.46;74.98;99224.20;1698512;84;21234;-82
2021/05/29 14:18:01;;;;;;;11.68;3.80;;;;;;;19.36;77.37;99209.67;1700093;84;21326;-82
2021/05/29 14:21:08;;;;;;;12.03;3.05;;;;;;;19.18;79.45;99211.95;1698662;84;21744;-79
2021/05/29 14:24:15;;;;;;;9.13;3.77;;;;;;;18.96;81.98;99214.20;1700217;84;21373;-80
2021/05/29 14:27:20;;;;;;;10.98;3.62;;;;;;;18.80;83.77;99208.98;1700190;84;21816;-80
2021/05/29 14:30:27;;;;;;;11.45;3.62;;;;;;;18.73;85.41;99215.83;1698722;84;21717;-80
2021/05/29 14:33:33;;;;;;;9.78;4.20;;;;;;;18.69;86.14;99207.73;1700167;84;21333;-80
2021/05/29 14:36:38;;;;;;;18.62;7.08;;;;;;;18.70;87.18;99207.47;1700208;84;21287;-81
2021/05/29 14:39:45;;;;;;;10.58;4.28;;;;;;;18.72;86.27;99216.35;1700273;84;21342;-81
2021/05/29 14:42:50;;;;;;;9.05;3.77;;;;;;;18.78;84.93;99207.59;1700184;84;21362;-81
2021/05/29 14:45:56;;;;;;;11.68;3.85;;;;;;;18.83;84.28;99218.19;1698666;84;21222;-81
2021/05/29 14:49:03;;;;;;;10.45;4.05;;;;;;;18.87;83.75;99219.90;1700046;84;21318;-81
2021/05/29 14:52:09;;;;;;;8.00;3.75;;;;;;;18.91;83.52;99222.42;1700271;84;21934;-81